Tiempo atmosférico en la estación meteorológica de Torrelavega, Sierrapando, Cantabria (100 m.)



Fecha
DESCASC
Temp. máxima en grados centígrados (hora)
DESCASC
Temp. mínima en grados centígrados (hora)
DESCASC
Temp. media en grados centígrados
DESCASC
Racha de viento máxima en m/sg (hora)
DESCASC
Velocidad máxima media en intervalos de 10 minutos(hora)
DESCASC
Precipitaciones diarias en mm
DESCASC
Precipitaciones de 00:00 a 06:00 en mm
DESCASC
Precipitaciones de 06:00 a 12:00 en mm
DESCASC
Precipitaciones de 12:00 a 18:00 en mm
DESCASC
Precipitaciones de 18:00 a 24:00 en mm
DESCASC
25-04-2019 19.4 (15:00) 8.8 (23:30) 14.1 17.78 (20:00) 11.67 (17:40) 2 0 0 0 2
24-04-2019 20.7 (17:00) 6.8 (04:30) 13.8 21.11 (10:40) 11.94 (12:20) 0.2 0 0.2 0 0
23-04-2019 18.6 (00:10) 8 (21:10) 13.3 12.78 (20:40) 8.89 (20:40) 3.6 0 0 0 3.6
22-04-2019 19.7 (20:10) 9 (00:00) 14.4 8.33 (22:10) 5.28 (14:30) 0 0 0 0 0
21-04-2019 16.8 (12:00) 9 (00:00) 12.9 6.94 (14:40) 4.72 (14:00) 0 0 0 0 0
20-04-2019 18.9 (13:00) 9.4 (00:00) 14.1 6.39 (14:00) 4.72 (14:00) 0 0 0 0 0
19-04-2019 19.3 (15:20) 11.5 (00:00) 15.4 8.61 (16:10) 6.11 (16:20) 2 1.4 0.6 0 0
18-04-2019 18.2 (01:40) 11.4 (00:00) 14.8 10.28 (01:40) 6.11 (01:00) 13.4 0 0 2.8 10.6
17-04-2019 25.6 (16:30) 12.3 (00:00) 19 16.67 (15:40) 10.28 (15:40) 0.4 0 0 0 0.4
16-04-2019 18.9 (17:00) 7.9 (00:00) 13.4 11.11 (15:50) 8.33 (15:20) 0 0 0 0 0
15-04-2019 26.8 (13:40) 11.1 (00:00) 18.9 19.72 (13:50) 10.28 (14:10) 9.4 0 0 4.6 4.8
14-04-2019 22.2 (12:40) 10.9 (00:00) 16.6 6.67 (13:00) 4.72 (13:10) 0 0 0 0 0
13-04-2019 19.3 (16:20) 5.7 (00:00) 12.5 6.39 (07:10) 4.72 (07:20) 0 0 0 0 0
12-04-2019 15.2 (13:50) 5.7 (00:00) 10.4 8.89 (15:20) 6.67 (15:10) 0.2 0 0.2 0 0
11-04-2019 11.8 (18:30) 8.2 (00:00) 10 10.83 (14:10) 6.67 (14:10) 11 4.2 2.8 2.6 1.4
10-04-2019 14.5 (12:00) 7.2 (00:00) 10.8 8.33 (15:20) 5 (15:20) 1.4 0.6 0 0 0.8
09-04-2019 16.9 (11:30) 7.2 (00:00) 12 10 (17:40) 7.22 (17:40) 5.6 0 0 5.6 0
08-04-2019 16.3 (16:10) 9.5 (00:00) 12.9 9.72 (06:50) 6.39 (07:00) 0 0 0 0 0
07-04-2019 14.5 (14:00) 7.8 (00:00) 11.2 9.44 (12:10) 6.11 (12:00) 0 0 0 0 0
06-04-2019 17.2 (14:10) 5.8 (00:00) 11.5 12.5 (19:10) 7.78 (19:20) 0.2 0 0 0 0.2
05-04-2019 13.5 (16:40) 8.6 (00:00) 11.1 13.89 (03:40) 8.33 (03:30) 0.8 0 0 0 0.8
04-04-2019 14.8 (14:40) 3.9 (00:00) 9.4 14.72 (03:00) 9.72 (03:00) 2 2 0 0 0
03-04-2019 9.3 (11:50) 3.9 (00:00) 6.6 20.83 (15:20) 11.39 (20:30) 30.6 2.2 8 12 8.4
02-04-2019 13.1 (12:20) 7.3 (00:00) 10.2 8.89 (22:30) 5.83 (22:40) 3.2 0 0 0 3.2
01-04-2019 16.7 (14:20) 8.2 (00:00) 12.5 6.94 (15:00) 5 (15:00) 0 0 0 0 0
31-03-2019 21.1 (14:50) 8.7 (00:00) 14.9 11.67 (16:10) 8.61 (16:20) 0 0 0 0 0
30-03-2019 17.1 (12:00) 7 (00:00) 12.1 7.22 (13:00) 5 (12:40) 0 0 0 0 0
29-03-2019 16.1 (13:40) 4.8 (00:00) 10.5 6.39 (14:40) 4.44 (05:40) 0 0 0 0 0
28-03-2019 14.6 (12:30) 5 (00:00) 9.8 8.33 (14:50) 5.83 (14:20) 0 0 0 0 0
27-03-2019 14.2 (12:50) 3.6 (00:00) 8.9 8.89 (13:30) 6.39 (14:20) 0 0 0 0 0

Gráficas

Temp. máximas Temp. mínimas Temp. medias Precipitaciones Rachas de viento máximas Velocidades máximas media en intervalos de 10 minutos

Datos horarios

Fecha y hora oficial Temperatura (ºC) Velocidad del viento (km/h) Dirección del viento Racha (km/h) Dirección de racha Precipitación (mm) Presión (hPa) Tendencia (hPa) Humedad (%)
2019-04-25 23:00:00 9 18 Oeste 53 Noroeste 0.4 -- -- 83
2019-04-25 22:00:00 10.1 10 Sudoeste 17 Sudoeste 0 -- -- 81
2019-04-25 21:00:00 10 9 Sudoeste 58 Noroeste 1.4 -- -- 83
2019-04-25 20:00:00 13.4 36 Noroeste 64 Noroeste 0 -- -- 63
2019-04-25 19:00:00 16.4 21 Oeste 55 Sudoeste 0 -- -- 43
2019-04-25 18:00:00 18.3 32 Sudoeste 64 Sudoeste 0 -- -- 38
2019-04-25 17:00:00 18.2 15 Oeste 41 Oeste 0 -- -- 40
2019-04-25 16:00:00 18.1 26 Oeste 46 Sudoeste 0 -- -- 41
2019-04-25 15:00:00 19.4 24 Sudoeste 44 Sudoeste 0 -- -- 37
2019-04-25 14:00:00 17 13 Norte 22 Norte 0 -- -- 57
2019-04-25 13:00:00 16.3 9 Nordeste 26 Sudoeste 0 -- -- 59
2019-04-25 12:00:00 16.7 17 Sur 35 Sur 0 -- -- 42
2019-04-25 11:00:00 15.3 21 Sur 36 Sur 0 -- -- 45
2019-04-25 10:00:00 13.9 14 Sudoeste 33 Sur 0 -- -- 50
2019-04-25 09:00:00 12.7 26 Sudoeste 44 Sudoeste 0 -- -- 52
2019-04-25 08:00:00 10.7 21 Sur 34 Sudoeste 0 -- -- 58
2019-04-25 07:00:00 10.6 15 Sudoeste 29 Sur 0 -- -- 61
2019-04-25 06:00:00 10 7 Oeste 10 Sudoeste 0 -- -- 74
2019-04-25 05:00:00 9.2 5 Noroeste 16 Sudeste 0 -- -- 87
2019-04-25 04:00:00 9 8 Sudeste 14 Sudeste 0 -- -- 92
2019-04-25 03:00:00 9.4 8 Sudeste 13 Sudeste 0 -- -- 92
2019-04-25 02:00:00 9.8 10 Sudeste 16 Sudeste 0 -- -- 92
2019-04-25 01:00:00 9.6 9 Este 13 Este 0 -- -- 93
2019-04-25 00:00:00 10.7 9 Nordeste 17 Este 0 -- -- 89
2019-04-24 23:00:00 11.1 5 Nordeste 14 Noroeste 0 -- -- 85
2019-04-24 22:00:00 12.2 10 Noroeste 24 Noroeste 0 -- -- 77
2019-04-24 21:00:00 13.6 16 Noroeste 26 Oeste 0 -- -- 66
2019-04-24 20:00:00 15.1 26 Noroeste 44 Noroeste 0 -- -- 68
2019-04-24 19:00:00 18.7 18 Sudoeste 49 Sudoeste 0 -- -- 43
2019-04-24 18:00:00 18.6 34 Sudoeste 55 Sudoeste 0 -- -- 41
2019-04-24 17:00:00 20.7 10 Sur 25 Sur 0 -- -- 48
2019-04-24 16:00:00 17.5 14 Sur 44 Sur 0 -- -- 55
2019-04-24 15:00:00 16.1 30 Sur 58 Sudoeste 0 -- -- 54
2019-04-24 14:00:00 15.8 41 Sur 71 Sudoeste 0 -- -- 52
2019-04-24 13:00:00 13.4 37 Sur 69 Sudoeste 0 -- -- 55
2019-04-24 12:00:00 11.8 33 Sur 63 Sur 0 -- -- 60
2019-04-24 11:00:00 10.3 30 Sur 76 Sudoeste 0 -- -- 64
2019-04-24 10:00:00 10.9 26 Sur 55 Sur 0 -- -- 61
2019-04-24 09:00:00 10.7 25 Sur 39 Sur 0 -- -- 60
2019-04-24 08:00:00 10.8 23 Sur 36 Sur 0 -- -- 60
2019-04-24 07:00:00 9.5 24 Sur 44 Sur 0.2 -- -- 64
2019-04-24 06:00:00 8.2 10 Sudoeste 21 Sudoeste 0 -- -- 77
2019-04-24 05:00:00 7 10 Sudoeste 24 Sudoeste 0 -- -- 89
2019-04-24 04:00:00 7.2 6 Sur 15 Sudeste 0 -- -- 89
2019-04-24 03:00:00 7.6 10 Sur 17 Sudeste 0 -- -- 90
2019-04-24 02:00:00 7.8 6 Sur 14 Sur 0 -- -- 90
2019-04-24 01:00:00 8.1 11 Sudeste 19 Sudeste 0 -- -- 91
2019-04-24 00:00:00 8.3 7 Sur 12 Sur 0 -- -- 90
2019-04-23 23:00:00 8.4 8 Sudoeste 14 Oeste 0 -- -- 91
2019-04-23 22:00:00 8.1 11 Oeste 28 Noroeste 0.2 -- -- 92
2019-04-23 21:00:00 8.1 20 Oeste 46 Noroeste 3.4 -- -- 91
2019-04-23 20:00:00 11.6 11 Norte 24 Norte 0 -- -- 80
2019-04-23 19:00:00 12.4 16 Nordeste 22 Nordeste 0 -- -- 79
2019-04-23 18:00:00 12.5 12 Nordeste 20 Nordeste 0 -- -- 79
2019-04-23 17:00:00 12.9 14 Nordeste 20 Nordeste 0 -- -- 78
2019-04-23 16:00:00 12.1 10 Nordeste 16 Norte 0 -- -- 82
2019-04-23 15:00:00 12.6 12 Norte 20 Noroeste 0 -- -- 82
2019-04-23 14:00:00 11.9 14 Noroeste 24 Noroeste 0 -- -- 86
2019-04-23 13:00:00 12.5 17 Noroeste 31 Oeste 0 -- -- 87
2019-04-23 12:00:00 14.1 14 Noroeste 20 Noroeste 0 -- -- 87
2019-04-23 11:00:00 15.2 7 Norte 13 Noroeste 0 -- -- 82
2019-04-23 10:00:00 12.8 4 Oeste 7 Noroeste 0 -- -- 91
2019-04-23 09:00:00 12.4 4 Oeste 7 Oeste 0 -- -- 90
2019-04-23 08:00:00 12.1 5 Oeste 9 Oeste 0 -- -- 91
2019-04-23 07:00:00 12.3 7 Oeste 11 Oeste 0 -- -- 91
2019-04-23 06:00:00 12.5 0 Calma 5 Oeste 0 -- -- 90
2019-04-23 05:00:00 12.7 3 Nordeste 15 Noroeste 0 -- -- 91
2019-04-23 04:00:00 13 8 Noroeste 25 Oeste 0 -- -- 91
2019-04-23 03:00:00 13.4 12 Oeste 24 Oeste 0 -- -- 89
2019-04-23 02:00:00 17.4 9 Sudoeste 27 Sudoeste 0 -- -- 52
2019-04-23 01:00:00 16.8 8 Este 27 Sur 0 -- -- 54
2019-04-23 00:00:00 18.4 17 Sur 27 Sur 0 -- -- 48
2019-04-22 23:00:00 18.2 13 Sur 30 Sur 0 -- -- 50
2019-04-22 22:00:00 18.5 16 Sur 29 Sur 0 -- -- 47
2019-04-22 21:00:00 18.8 16 Sur 27 Sur 0 -- -- 46
2019-04-22 20:00:00 19.3 9 Sudeste 19 Sudeste 0 -- -- 54
2019-04-22 19:00:00 18.4 6 Nordeste 8 Sudeste 0 -- -- 73
2019-04-22 18:00:00 18.3 3 Norte 17 Noroeste 0 -- -- 71
2019-04-22 17:00:00 18.5 12 Noroeste 23 Norte 0 -- -- 65
2019-04-22 16:00:00 18.9 16 Norte 25 Norte 0 -- -- 62
2019-04-22 15:00:00 19.3 17 Norte 27 Norte 0 -- -- 68
2019-04-22 14:00:00 18.5 17 Nordeste 23 Nordeste 0 -- -- 72
2019-04-22 13:00:00 17.9 11 Nordeste 19 Nordeste 0 -- -- 74
2019-04-22 12:00:00 17.3 7 Nordeste 12 Este 0 -- -- 74
2019-04-22 11:00:00 16.1 4 Este 9 Nordeste 0 -- -- 76
2019-04-22 10:00:00 12.8 0 Calma 12 Sudoeste 0 -- -- 90
2019-04-22 09:00:00 9.8 9 Sudoeste 12 Sudoeste 0 -- -- 96
2019-04-22 08:00:00 9 7 Sudoeste 12 Sudoeste 0 -- -- 96
2019-04-22 07:00:00 9.2 5 Sudoeste 13 Sudeste 0 -- -- 95
2019-04-22 06:00:00 9.5 10 Sudeste 17 Sudeste 0 -- -- 95
2019-04-22 05:00:00 10.1 11 Sudeste 16 Sudeste 0 -- -- 94
2019-04-22 04:00:00 10.5 8 Sur 16 Sudeste 0 -- -- 93
2019-04-22 03:00:00 10.8 10 Sudeste 14 Sudeste 0 -- -- 93
2019-04-22 02:00:00 11.3 9 Sudeste 12 Sudeste 0 -- -- 92
2019-04-22 01:00:00 11.9 8 Sudeste 10 Sur 0 -- -- 91
2019-04-22 00:00:00 12 2 Nordeste 5 Nordeste 0 -- -- 89
2019-04-21 23:00:00 12.4 3 Sudoeste 5 Sudoeste 0 -- -- 87
2019-04-21 22:00:00 12.4 6 Este 18 Este 0 -- -- 87
2019-04-21 21:00:00 12.7 9 Nordeste 15 Nordeste 0 -- -- 88
2019-04-21 20:00:00 13 14 Nordeste 18 Nordeste 0 -- -- 89
2019-04-21 19:00:00 13.8 13 Norte 21 Nordeste 0 -- -- 86
2019-04-21 18:00:00 15.7 10 Norte 20 Norte 0 -- -- 80
2019-04-21 17:00:00 16.1 13 Norte 19 Norte 0 -- -- 80
2019-04-21 16:00:00 15.8 13 Noroeste 21 Noroeste 0 -- -- 78
2019-04-21 15:00:00 16 15 Noroeste 25 Noroeste 0 -- -- 77
2019-04-21 14:00:00 16.7 17 Noroeste 25 Noroeste 0 -- -- 70
2019-04-21 13:00:00 16.7 14 Noroeste 24 Noroeste 0 -- -- 74
2019-04-21 12:00:00 16.8 10 Noroeste 17 Noroeste 0 -- -- 72
2019-04-21 11:00:00 15.3 11 Oeste 19 Sudoeste 0 -- -- 72
2019-04-21 10:00:00 14.9 12 Sudoeste 18 Sudoeste 0 -- -- 78
2019-04-21 09:00:00 11.6 11 Sudoeste 16 Sudeste 0 -- -- 82
2019-04-21 08:00:00 9.7 5 Sur 14 Sudeste 0 -- -- 82
2019-04-21 07:00:00 9.4 8 Sur 15 Oeste 0 -- -- 84
2019-04-21 06:00:00 9.2 9 Oeste 17 Sudoeste 0 -- -- 85
2019-04-21 05:00:00 9.3 6 Sudoeste 18 Sudeste 0 -- -- 86
2019-04-21 04:00:00 10.1 15 Sudeste 22 Sudeste 0 -- -- 85
2019-04-21 03:00:00 10 7 Sur 13 Sudoeste 0 -- -- 88
2019-04-21 02:00:00 10.2 8 Sur 15 Sur 0 -- -- 90
2019-04-21 01:00:00 10.9 7 Sur 13 Sudeste 0 -- -- 91
2019-04-21 00:00:00 11.4 6 Sur 10 Sur 0 -- -- 93
2019-04-20 23:00:00 12.1 5 Sudoeste 7 Sudoeste 0 -- -- 92
2019-04-20 22:00:00 12.3 0 Calma 9 Nordeste 0 -- -- 92
2019-04-20 21:00:00 13 8 Nordeste 11 Nordeste 0 -- -- 87
2019-04-20 20:00:00 15.3 9 Norte 12 Norte 0 -- -- 80
2019-04-20 19:00:00 16.7 7 Nordeste 14 Nordeste 0 -- -- 75
2019-04-20 18:00:00 16.7 9 Nordeste 20 Nordeste 0 -- -- 74
2019-04-20 17:00:00 17.1 12 Nordeste 22 Nordeste 0 -- -- 71
2019-04-20 16:00:00 17.2 16 Nordeste 23 Nordeste 0 -- -- 69
2019-04-20 15:00:00 17.3 17 Nordeste 23 Nordeste 0 -- -- 75
2019-04-20 14:00:00 17.5 17 Nordeste 23 Norte 0 -- -- 75
2019-04-20 13:00:00 18.9 6 Norte 15 Norte 0 -- -- 68
2019-04-20 12:00:00 17.4 8 Norte 15 Este 0 -- -- 76
2019-04-20 11:00:00 16.9 4 Norte 8 Nordeste 0 -- -- 76
2019-04-20 10:00:00 14.5 0 Calma 13 Sudoeste 0 -- -- 80
2019-04-20 09:00:00 -- 8 Sudoeste 11 Sudoeste 0 -- -- --
2019-04-20 08:00:00 10.4 8 Sur 13 Sudeste 0 -- -- 92
2019-04-20 07:00:00 9.7 5 Sudoeste 12 Sur 0 -- -- 93
2019-04-20 06:00:00 10.5 9 Sur 13 Sudeste 0 -- -- 92
2019-04-20 05:00:00 10.2 5 Sudoeste 10 Sur 0 -- -- 94
2019-04-20 04:00:00 10.8 9 Sudeste 14 Sudeste 0 -- -- 91
2019-04-20 03:00:00 10.9 4 Sudoeste 12 Sudoeste 0 -- -- 92
2019-04-20 02:00:00 11.2 5 Sudoeste 13 Sudoeste 0 -- -- 92
2019-04-20 01:00:00 11.9 7 Sur 12 Sudoeste 0 -- -- 91
2019-04-20 00:00:00 12.2 6 Sudoeste 8 Sudoeste 0 -- -- 90
2019-04-19 23:00:00 13 2 Noroeste 10 Nordeste 0 -- -- 87
2019-04-19 22:00:00 14 7 Nordeste 9 Nordeste 0 -- -- 83
2019-04-19 21:00:00 16.1 3 Norte 5 Noroeste 0 -- -- 77
2019-04-19 20:00:00 16.9 4 Nordeste 17 Este 0 -- -- 71
2019-04-19 19:00:00 17.9 12 Nordeste 22 Norte 0 -- -- 69
2019-04-19 18:00:00 19.1 15 Este 23 Nordeste 0 -- -- 63
2019-04-19 17:00:00 18.3 12 Nordeste 31 Este 0 -- -- 64
2019-04-19 16:00:00 18 19 Este 28 Nordeste 0 -- -- 67
2019-04-19 15:00:00 19 12 Este 21 Este 0 -- -- 71
2019-04-19 14:00:00 18.2 14 Sudeste 19 Este 0 -- -- 80
2019-04-19 13:00:00 16.7 8 Nordeste 11 Nordeste 0 -- -- 89
2019-04-19 12:00:00 14.7 3 Noroeste 10 Nordeste 0 -- -- 99
2019-04-19 11:00:00 12.7 4 Sudeste 12 Este 0 -- -- 100
2019-04-19 10:00:00 11.9 9 Nordeste 14 Nordeste 0.4 -- -- 99
2019-04-19 09:00:00 11.7 3 Nordeste 12 Nordeste 0.2 -- -- 99
2019-04-19 08:00:00 11.7 4 Norte 14 Sudeste 0 -- -- 99
2019-04-19 07:00:00 11.7 0 Calma 7 Este 0 -- -- 99
2019-04-19 06:00:00 11.8 0 Calma 8 Sudoeste 0 -- -- 99
2019-04-19 05:00:00 11.8 4 Oeste 10 Oeste 0.2 -- -- 99
2019-04-19 04:00:00 11.7 3 Norte 11 Nordeste 0.6 -- -- 99
2019-04-19 03:00:00 11.6 5 Este 6 Este 0.4 -- -- 99
2019-04-19 02:00:00 11.5 2 Este 6 Noroeste 0 -- -- 98
2019-04-19 01:00:00 11.5 3 Norte 10 Oeste 0.2 -- -- 98
2019-04-19 00:00:00 11.6 7 Oeste 11 Oeste 0.6 -- -- 98
2019-04-18 23:00:00 11.6 0 Calma 0 Calma -- -- -- 97
2019-04-18 22:00:00 11.5 0 Calma 13 Noroeste 1.2 -- -- 97
2019-04-18 21:00:00 11.4 4 Norte 8 Norte 2.2 -- -- 96
2019-04-18 20:00:00 11.6 5 Nordeste 20 Este 2.8 -- -- 95
2019-04-18 19:00:00 11.8 19 Este 27 Nordeste 1.8 -- -- 95
2019-04-18 18:00:00 12.9 10 Nordeste 15 Nordeste 0.2 -- -- 95
2019-04-18 17:00:00 13.9 10 Nordeste 14 Nordeste 0 -- -- 93
2019-04-18 16:00:00 14 7 Nordeste 10 Norte 0 -- -- 91
2019-04-18 15:00:00 13.4 5 Norte 16 Este 1.4 -- -- 93
2019-04-18 14:00:00 12.5 12 Este 22 Este 0.6 -- -- 93
2019-04-18 13:00:00 13.2 10 Este 14 Este 0.6 -- -- 89
2019-04-18 12:00:00 13.4 4 Sudeste 6 Sudeste 0 -- -- 86
2019-04-18 11:00:00 13.2 3 Sudoeste 5 Oeste 0 -- -- 84
2019-04-18 10:00:00 13 5 Oeste 9 Sudoeste 0 -- -- 84
2019-04-18 09:00:00 12.7 6 Sudoeste 9 Sur 0 -- -- 84
2019-04-18 08:00:00 12.6 5 Sudoeste 21 Oeste 0 -- -- 84
2019-04-18 07:00:00 12.7 14 Oeste 21 Oeste 0 -- -- 84
2019-04-18 06:00:00 13.6 3 Este 13 Noroeste 0 -- -- 74
2019-04-18 05:00:00 13.4 5 Oeste 15 Noroeste 0 -- -- 76
2019-04-18 04:00:00 13.3 6 Oeste 18 Oeste 0 -- -- 77
2019-04-18 03:00:00 13.9 7 Oeste 28 Sudoeste 0 -- -- 75
2019-04-18 02:00:00 17.6 16 Sudoeste 37 Sur 0 -- -- 68
2019-04-18 01:00:00 17.6 22 Sur 36 Sur 0 -- -- 69
2019-04-18 00:00:00 16.4 24 Sudeste 43 Sudeste 0.4 -- -- 78
2019-04-17 23:00:00 18.8 22 Sudeste 40 Sudeste 0 -- -- 63
2019-04-17 22:00:00 20.8 30 Sur 50 Sudeste 0 -- -- 53
2019-04-17 21:00:00 21.6 28 Sudeste 44 Sudeste 0 -- -- 48
2019-04-17 20:00:00 21.8 21 Sudeste 40 Sur 0 -- -- 47
2019-04-17 19:00:00 22.2 25 Sur 41 Sur 0 -- -- 47
2019-04-17 18:00:00 24 17 Sur 47 Sudoeste 0 -- -- 41
2019-04-17 17:00:00 25.1 21 Sur 56 Sudoeste 0 -- -- 37
2019-04-17 16:00:00 24.2 31 Sudoeste 60 Sudoeste 0 -- -- 37
2019-04-17 15:00:00 21.7 24 Sur 44 Sur 0 -- -- 49
2019-04-17 14:00:00 20.8 16 Sur 38 Sur 0 -- -- 50
2019-04-17 13:00:00 19.6 13 Sur 57 Sur 0 -- -- 51
2019-04-17 12:00:00 18.9 21 Sur 49 Sudoeste 0 -- -- 51
2019-04-17 11:00:00 18.1 21 Sudeste 36 Sur 0 -- -- 53
2019-04-17 10:00:00 18.1 21 Sur 39 Sur 0 -- -- 52
2019-04-17 09:00:00 16.7 19 Sudeste 35 Sudeste 0 -- -- 57
2019-04-17 08:00:00 16.2 24 Sudeste 39 Sudeste 0 -- -- 59
2019-04-17 07:00:00 16.6 18 Sudeste 27 Sudeste 0 -- -- 57
2019-04-17 06:00:00 16.6 17 Este 27 Este 0 -- -- 57
2019-04-17 05:00:00 17.4 13 Sur 20 Sudeste 0 -- -- 54
2019-04-17 04:00:00 17.6 5 Sudeste 24 Sur 0 -- -- 53
2019-04-17 03:00:00 17.5 16 Sur 30 Sur 0 -- -- 58
2019-04-17 02:00:00 14 8 Sudeste 19 Sudeste 0 -- -- 80
2019-04-17 01:00:00 12.4 12 Sur 17 Sur 0 -- -- 90
2019-04-17 00:00:00 12.6 6 Sur 10 Sudeste 0 -- -- 90
2019-04-16 23:00:00 12.9 8 Sudeste 10 Sudeste 0 -- -- 87
2019-04-16 22:00:00 13.7 5 Sudeste 12 Este 0 -- -- 83
2019-04-16 21:00:00 14.5 11 Este 19 Sudeste 0 -- -- 79
2019-04-16 20:00:00 16.4 12 Este 23 Este 0 -- -- 72
2019-04-16 19:00:00 17.2 17 Este 32 Este 0 -- -- 71
2019-04-16 18:00:00 18.2 24 Este 37 Este 0 -- -- 67
2019-04-16 17:00:00 18.9 24 Este 37 Este 0 -- -- 66
2019-04-16 16:00:00 18.8 23 Este 40 Este 0 -- -- 67
2019-04-16 15:00:00 18.2 27 Este 35 Nordeste 0 -- -- 68
2019-04-16 14:00:00 18.5 18 Este 33 Este 0 -- -- 64
2019-04-16 13:00:00 17.6 21 Este 30 Este 0 -- -- 62
2019-04-16 12:00:00 16.3 20 Este 30 Este 0 -- -- 66
2019-04-16 11:00:00 15.1 13 Este 23 Este 0 -- -- 75
2019-04-16 10:00:00 12.1 14 Sudeste 21 Sudeste 0 -- -- 82
2019-04-16 09:00:00 9.9 13 Sudeste 21 Sudeste 0 -- -- 89
2019-04-16 08:00:00 8.3 9 Sudeste 19 Sudeste 0 -- -- 96
2019-04-16 07:00:00 8 6 Sur 20 Sudeste 0 -- -- 96
2019-04-16 06:00:00 8.5 12 Sudeste 19 Sudeste 0 -- -- 96
2019-04-16 05:00:00 9.2 10 Sudeste 15 Sudeste 0 -- -- 94
2019-04-16 04:00:00 10 8 Sur 13 Sudoeste 0 -- -- 93
2019-04-16 03:00:00 10.5 6 Sur 12 Sudoeste 0 -- -- 92
2019-04-16 02:00:00 10.7 10 Sudoeste 15 Sudoeste 0 -- -- 93
2019-04-16 01:00:00 11 11 Sudoeste 20 Sudoeste 0 -- -- 93
2019-04-16 00:00:00 11.2 14 Oeste 22 Oeste 0 -- -- 95
2019-04-15 23:00:00 11.1 10 Sudoeste 25 Oeste 1.8 -- -- 95
2019-04-15 22:00:00 11.4 13 Oeste 25 Noroeste 1.2 -- -- 95
2019-04-15 21:00:00 11.6 6 Oeste 22 Noroeste 1 -- -- 95
2019-04-15 20:00:00 12 17 Noroeste 29 Norte 0.8 -- -- 94
2019-04-15 19:00:00 13 2 Sudoeste 17 Oeste 0 -- -- 92
2019-04-15 18:00:00 13.2 11 Noroeste 27 Oeste 0.4 -- -- 92
2019-04-15 17:00:00 13.3 15 Oeste 46 Oeste 0.4 -- -- 93
2019-04-15 16:00:00 14.1 15 Noroeste 28 Noroeste 1.4 -- -- 94
2019-04-15 15:00:00 15.3 24 Noroeste 59 Oeste 2.4 -- -- 91
2019-04-15 14:00:00 18.2 36 Oeste 71 Oeste 0 -- -- 72
2019-04-15 13:00:00 22.7 17 Sur 41 Sur 0 -- -- 54
2019-04-15 12:00:00 20.8 15 Sur 37 Sudoeste 0 -- -- 56
2019-04-15 11:00:00 19.3 12 Sudeste 37 Este 0 -- -- 60
2019-04-15 10:00:00 19.9 6 Sudoeste 21 Sudeste 0 -- -- 58
2019-04-15 09:00:00 19.6 13 Sudeste 29 Sur 0 -- -- 59
2019-04-15 08:00:00 19.4 8 Sur 19 Sur 0 -- -- 60
2019-04-15 07:00:00 18.2 9 Sudoeste 18 Sur 0 -- -- 64
2019-04-15 06:00:00 18 7 Sur 20 Sudeste 0 -- -- 64
2019-04-15 05:00:00 16.5 12 Sur 30 Sudeste 0 -- -- 73
2019-04-15 04:00:00 15 18 Sudeste 27 Sudeste 0 -- -- 82
2019-04-15 03:00:00 13.3 18 Sudeste 24 Sudeste 0 -- -- 91
2019-04-15 02:00:00 13.4 6 Sur 17 Sudeste 0 -- -- 88
2019-04-15 01:00:00 13.5 8 Sur 14 Este 0 -- -- 86
2019-04-15 00:00:00 13.9 4 Nordeste 19 Este 0 -- -- 84
2019-04-14 23:00:00 14.6 5 Este 14 Este 0 -- -- 81
2019-04-14 22:00:00 16 0 Calma 11 Este 0 -- -- 79
2019-04-14 21:00:00 16.9 4 Sudeste 15 Sudeste 0 -- -- 75
2019-04-14 20:00:00 18.1 14 Este 22 Este 0 -- -- 72
2019-04-14 19:00:00 19 13 Nordeste 19 Nordeste 0 -- -- 71
2019-04-14 18:00:00 21 9 Nordeste 15 Nordeste 0 -- -- 66
2019-04-14 17:00:00 21.4 7 Nordeste 17 Nordeste 0 -- -- 61
2019-04-14 16:00:00 21 5 Nordeste 18 Nordeste 0 -- -- 59
2019-04-14 15:00:00 20.2 11 Nordeste 21 Norte 0 -- -- 64
2019-04-14 14:00:00 19.8 10 Norte 23 Nordeste 0 -- -- 66
2019-04-14 13:00:00 20.7 15 Norte 24 Norte 0 -- -- 61
2019-04-14 12:00:00 20.4 5 Sur 9 Sudeste 0 -- -- 56
2019-04-14 11:00:00 16.3 5 Sur 9 Sur 0 -- -- 66
2019-04-14 10:00:00 14.4 5 Sur 11 Sur 0 -- -- 69
2019-04-14 09:00:00 12 10 Sur 18 Sudeste 0 -- -- 79
2019-04-14 08:00:00 10.9 7 Sudoeste 11 Sudoeste 0 -- -- 85
2019-04-14 07:00:00 11.6 9 Sur 12 Sudeste 0 -- -- 82
2019-04-14 06:00:00 11.4 9 Sur 15 Sudeste 0 -- -- 87
2019-04-14 05:00:00 11.8 5 Sudoeste 11 Noroeste 0 -- -- 86
2019-04-14 04:00:00 12.1 4 Norte 8 Norte 0 -- -- 78
2019-04-14 03:00:00 12.9 3 Oeste 5 Oeste 0 -- -- 76
2019-04-14 02:00:00 13.4 3 Sudoeste 5 Sur 0 -- -- 73
2019-04-14 01:00:00 13.4 5 Sur 12 Sudeste 0 -- -- 77
2019-04-14 00:00:00 13.6 8 Sudeste 10 Sudeste 0 -- -- 72
2019-04-13 23:00:00 13.7 0 Calma 3 Nordeste 0 -- -- 69
2019-04-13 22:00:00 13.6 0 Calma 5 Norte -- -- -- 72
2019-04-13 21:00:00 14.1 3 Nordeste 10 Norte 0 -- -- 70
2019-04-13 20:00:00 15 7 Norte 11 Nordeste 0 -- -- 66
2019-04-13 19:00:00 17.1 8 Nordeste 16 Nordeste 0 -- -- 58
2019-04-13 18:00:00 18.9 8 Norte 18 Nordeste 0 -- -- 53
2019-04-13 17:00:00 19.2 9 Norte 17 Nordeste 0 -- -- 53
2019-04-13 16:00:00 19 9 Nordeste 19 Nordeste 0 -- -- 51
2019-04-13 15:00:00 18.3 10 Nordeste 19 Nordeste 0 -- -- 55
2019-04-13 14:00:00 17.5 11 Norte 21 Norte 0 -- -- 62
2019-04-13 13:00:00 16.6 15 Norte 20 Nordeste 0 -- -- 67
2019-04-13 12:00:00 16.6 6 Este 10 Este 0 -- -- 62
2019-04-13 11:00:00 14.7 3 Este 8 Este 0 -- -- 65
2019-04-13 10:00:00 11.8 4 Sur 14 Sudeste 0 -- -- 65
2019-04-13 09:00:00 8.5 9 Sur 18 Sudeste 0 -- -- 73
2019-04-13 08:00:00 5.9 12 Sur 23 Sudeste 0 -- -- 83
2019-04-13 07:00:00 5.8 13 Sudeste 18 Sudeste 0 -- -- 88
2019-04-13 06:00:00 5.9 7 Sur 15 Sur 0 -- -- 93
2019-04-13 05:00:00 6.2 10 Sur 12 Sudeste 0 -- -- 93
2019-04-13 04:00:00 6.5 9 Sudeste 17 Sudeste 0 -- -- 93
2019-04-13 03:00:00 6.7 8 Sur 12 Sudeste 0 -- -- 93
2019-04-13 02:00:00 7.1 10 Sur 14 Sudeste 0 -- -- 92
2019-04-13 01:00:00 8 6 Sudeste 16 Sudeste 0 -- -- 91
2019-04-13 00:00:00 8.4 14 Sudeste 17 Sudeste 0 -- -- 89
2019-04-12 23:00:00 9 9 Sudeste 14 Sudeste 0 -- -- 84
2019-04-12 22:00:00 10.2 7 Este 14 Este 0 -- -- 79
2019-04-12 21:00:00 11.3 2 Norte 17 Este 0 -- -- 75
2019-04-12 20:00:00 12.8 12 Este 26 Nordeste 0 -- -- 73
2019-04-12 19:00:00 13.7 19 Nordeste 29 Este 0 -- -- 70
2019-04-12 18:00:00 14.4 21 Nordeste 29 Nordeste 0 -- -- 68
2019-04-12 17:00:00 15.1 18 Nordeste 30 Nordeste 0 -- -- 67
2019-04-12 16:00:00 14.8 22 Nordeste 32 Nordeste 0 -- -- 71
2019-04-12 15:00:00 14.6 23 Nordeste 30 Nordeste 0 -- -- 74
2019-04-12 14:00:00 14.8 19 Nordeste 28 Nordeste 0 -- -- 75
2019-04-12 13:00:00 14.8 12 Nordeste 20 Nordeste 0 -- -- 75
2019-04-12 12:00:00 13.6 9 Nordeste 16 Nordeste 0 -- -- 72
2019-04-12 11:00:00 12.2 7 Sudeste 13 Sudeste 0 -- -- 84
2019-04-12 10:00:00 9.6 8 Sudeste 16 Sudeste 0 -- -- 94
2019-04-12 09:00:00 7.3 10 Sudeste 15 Sudeste 0.2 -- -- 99
2019-04-12 08:00:00 5.7 9 Sur 15 Sudoeste 0 -- -- 99
2019-04-12 07:00:00 5.8 8 Sur 17 Sudeste 0 -- -- 99
2019-04-12 06:00:00 6.1 9 Sur 19 Sudeste 0 -- -- 98
2019-04-12 05:00:00 6.6 8 Sur 13 Sur 0 -- -- 98
2019-04-12 04:00:00 7.3 8 Sur 10 Sur 0 -- -- 97
2019-04-12 03:00:00 7.8 6 Sudoeste 10 Sur 0 -- -- 97
2019-04-12 02:00:00 8.7 7 Sur 9 Sur 0 -- -- 97
2019-04-12 01:00:00 9 5 Sur 9 Sudoeste 0 -- -- 96
2019-04-12 00:00:00 9.1 8 Sudoeste 8 Sudoeste 0 -- -- 96
2019-04-11 23:00:00 9.1 5 Este 11 Nordeste 0.2 -- -- 96
2019-04-11 22:00:00 9.2 9 Sudoeste 11 Sudoeste 0 -- -- 96
2019-04-11 21:00:00 9.4 9 Sudoeste 13 Oeste 0 -- -- 96
2019-04-11 20:00:00 9.7 7 Oeste 14 Norte 0.8 -- -- 95
2019-04-11 19:00:00 10.1 12 Nordeste 34 Oeste 0.4 -- -- 92
2019-04-11 18:00:00 11.1 15 Noroeste 30 Noroeste 0 -- -- 91
2019-04-11 17:00:00 11.3 14 Noroeste 29 Noroeste 0 -- -- 88
2019-04-11 16:00:00 10.8 21 Noroeste 32 Noroeste 0 -- -- 88
2019-04-11 15:00:00 10.6 15 Noroeste 39 Oeste 0.6 -- -- 91
2019-04-11 14:00:00 10.7 23 Noroeste 37 Oeste 0.2 -- -- 91
2019-04-11 13:00:00 10.4 8 Oeste 29 Noroeste 1.8 -- -- 92
2019-04-11 12:00:00 10.1 13 Noroeste 26 Noroeste 1.8 -- -- 92
2019-04-11 11:00:00 10.1 15 Noroeste 29 Oeste 1 -- -- 90
2019-04-11 10:00:00 9.9 18 Oeste 32 Oeste 0 -- -- 89
2019-04-11 09:00:00 9.5 10 Oeste 19 Oeste 0 -- -- 91
2019-04-11 08:00:00 8.8 10 Sudoeste 17 Oeste 0 -- -- 92
2019-04-11 07:00:00 8.3 10 Sudoeste 14 Oeste 0 -- -- 93
2019-04-11 06:00:00 8.3 12 Sudoeste 18 Sudoeste 0 -- -- 94
2019-04-11 05:00:00 8.3 15 Sudoeste 21 Sudoeste 0 -- -- 93
2019-04-11 04:00:00 8.8 9 Sudoeste 19 Oeste 0 -- -- 92
2019-04-11 03:00:00 8.9 11 Sudoeste 24 Sudoeste 3.4 -- -- 93
2019-04-11 02:00:00 9.3 10 Oeste 23 Oeste 0.8 -- -- 92
2019-04-11 01:00:00 9.6 15 Oeste 24 Oeste 0 -- -- 92
2019-04-11 00:00:00 9.4 11 Oeste 24 Oeste 0 -- -- 92
2019-04-10 23:00:00 9.9 9 Oeste 26 Noroeste 0.6 -- -- 92
2019-04-10 22:00:00 10.4 12 Oeste 25 Oeste 0.2 -- -- 86
2019-04-10 21:00:00 10.9 17 Oeste 26 Noroeste 0 -- -- 83
2019-04-10 20:00:00 12.3 14 Noroeste 25 Noroeste 0 -- -- 76
2019-04-10 19:00:00 13 13 Noroeste 21 Noroeste 0 -- -- 71
2019-04-10 18:00:00 12.6 10 Norte 23 Norte 0 -- -- 75
2019-04-10 17:00:00 13.5 17 Norte 27 Norte 0 -- -- 70
2019-04-10 16:00:00 12.8 15 Nordeste 30 Nordeste 0 -- -- 73
2019-04-10 15:00:00 13.9 15 Norte 25 Nordeste 0 -- -- 68
2019-04-10 14:00:00 12.8 14 Norte 21 Norte 0 -- -- 73
2019-04-10 13:00:00 12.2 15 Nordeste 24 Nordeste 0 -- -- 78
2019-04-10 12:00:00 14.5 8 Este 15 Nordeste 0 -- -- 65
2019-04-10 11:00:00 12.5 6 Sudoeste 12 Sudoeste 0 -- -- 71
2019-04-10 10:00:00 9.6 7 Sur 10 Sur 0 -- -- 85
2019-04-10 09:00:00 8.7 5 Sudoeste 13 Sudeste 0 -- -- 86
2019-04-10 08:00:00 7.2 6 Sur 14 Sudeste 0 -- -- 90
2019-04-10 07:00:00 7.6 6 Sudeste 12 Sudeste 0 -- -- 90
2019-04-10 06:00:00 7.8 6 Sur 18 Sudeste 0 -- -- 89
2019-04-10 05:00:00 7.9 10 Sur 15 Sudeste 0 -- -- 90
2019-04-10 04:00:00 8.5 7 Sur 16 Sur 0 -- -- 88
2019-04-10 03:00:00 9.2 11 Sur 20 Sudoeste 0.2 -- -- 83
2019-04-10 02:00:00 9.3 13 Sudoeste 26 Sudoeste 0.4 -- -- 86
2019-04-10 01:00:00 9.2 15 Oeste 26 Oeste 0 -- -- 85
2019-04-10 00:00:00 9.1 6 Sur 18 Oeste 0 -- -- 86
2019-04-09 23:00:00 8.4 12 Sur 21 Sudeste 0 -- -- 88
2019-04-09 22:00:00 9.1 15 Sudeste 23 Sudeste 0 -- -- 84
2019-04-09 21:00:00 9.4 12 Sudeste 17 Sudeste 0 -- -- 82
2019-04-09 20:00:00 10.6 10 Sudeste 14 Sudeste 0 -- -- 81
2019-04-09 19:00:00 10.3 8 Sur 24 Sudeste 0 -- -- 86
2019-04-09 18:00:00 10.5 8 Este 36 Este 0 -- -- 90
2019-04-09 17:00:00 10.9 12 Sudoeste 20 Sur 0.2 -- -- 89
2019-04-09 16:00:00 10.5 10 Norte 29 Norte 5.4 -- -- 90
2019-04-09 15:00:00 12.6 13 Noroeste 27 Noroeste 0 -- -- 80
2019-04-09 14:00:00 13.7 20 Noroeste 29 Noroeste 0 -- -- 75
2019-04-09 13:00:00 15.6 18 Norte 28 Norte 0 -- -- 64
2019-04-09 12:00:00 15.9 14 Noroeste 20 Noroeste 0 -- -- 64
2019-04-09 11:00:00 15.9 9 Oeste 17 Sudoeste 0 -- -- 54
2019-04-09 10:00:00 15 7 Sudoeste 21 Sudoeste 0 -- -- 58
2019-04-09 09:00:00 12.5 7 Sur 18 Sudoeste 0 -- -- 61
2019-04-09 08:00:00 10 8 Sudeste 13 Sur 0 -- -- 64
2019-04-09 07:00:00 8.7 6 Sudoeste 13 Sudeste 0 -- -- 73
2019-04-09 06:00:00 8.2 5 Sur 15 Sur 0 -- -- 78
2019-04-09 05:00:00 7.5 8 Sur 16 Sur 0 -- -- 86
2019-04-09 04:00:00 7.3 12 Sudeste 18 Sudeste 0 -- -- 89
2019-04-09 03:00:00 7.3 9 Sur 17 Sudeste 0 -- -- 90
2019-04-09 02:00:00 8.4 9 Sudeste 13 Sudeste 0 -- -- 86
2019-04-09 01:00:00 9.1 9 Sudoeste 13 Sudoeste 0 -- -- 83
2019-04-09 00:00:00 9.5 7 Oeste 13 Oeste 0 -- -- 82
2019-04-08 23:00:00 10.4 5 Sudoeste 21 Sudeste 0 -- -- 78
2019-04-08 22:00:00 11.3 3 Sur 23 Este 0 -- -- 74
2019-04-08 21:00:00 11.6 17 Este 27 Este 0 -- -- 72
2019-04-08 20:00:00 12.5 18 Este 30 Este 0 -- -- 70
2019-04-08 19:00:00 13.7 18 Este 28 Nordeste 0 -- -- 60
2019-04-08 18:00:00 13.2 22 Nordeste 30 Nordeste 0 -- -- 65
2019-04-08 17:00:00 15.4 18 Nordeste 26 Nordeste 0 -- -- 59
2019-04-08 16:00:00 15.7 9 Norte 20 Este 0 -- -- 57
2019-04-08 15:00:00 14.6 6 Nordeste 14 Nordeste 0 -- -- 57
2019-04-08 14:00:00 14.4 5 Sudeste 11 Sudeste 0 -- -- 71
2019-04-08 13:00:00 13.9 4 Noroeste 10 Oeste 0 -- -- 71
2019-04-08 12:00:00 13.1 7 Oeste 17 Noroeste 0 -- -- 75
2019-04-08 11:00:00 12.6 7 Oeste 23 Oeste 0 -- -- 78
2019-04-08 10:00:00 12 8 Oeste 17 Oeste 0 -- -- 84
2019-04-08 09:00:00 11.1 7 Oeste 21 Oeste 0 -- -- 88
2019-04-08 08:00:00 11 15 Oeste 33 Oeste 0 -- -- 87
2019-04-08 07:00:00 11.5 23 Oeste 35 Noroeste 0 -- -- 74
2019-04-08 06:00:00 12 6 Sudeste 13 Sudeste 0 -- -- 67
2019-04-08 05:00:00 12.1 8 Sudeste 16 Sur 0 -- -- 66
2019-04-08 04:00:00 12.2 9 Sur 17 Sudoeste 0 -- -- 65
2019-04-08 03:00:00 12.9 13 Sur 27 Sur 0 -- -- 59
2019-04-08 02:00:00 12.2 8 Sur 21 Sur 0 -- -- 59
2019-04-08 01:00:00 12.3 12 Sur 26 Sudoeste 0 -- -- 58
2019-04-08 00:00:00 12.2 18 Sudoeste 32 Sur 0 -- -- 58
2019-04-07 23:00:00 12.3 17 Sur 31 Sur 0 -- -- 60
2019-04-07 22:00:00 11 11 Sudoeste 16 Sudoeste 0 -- -- 78
2019-04-07 21:00:00 10.8 3 Oeste 14 Este 0 -- -- 78
2019-04-07 20:00:00 11.3 10 Nordeste 21 Este 0 -- -- 75
2019-04-07 19:00:00 12 15 Nordeste 26 Nordeste 0 -- -- 69
2019-04-07 18:00:00 12.4 15 Nordeste 26 Nordeste 0 -- -- 67
2019-04-07 17:00:00 12.9 14 Nordeste 25 Nordeste 0 -- -- 61
2019-04-07 16:00:00 13.8 16 Nordeste 26 Nordeste 0 -- -- 56
2019-04-07 15:00:00 14.4 15 Nordeste 24 Nordeste 0 -- -- 55
2019-04-07 14:00:00 14.5 12 Norte 26 Noroeste 0 -- -- 54
2019-04-07 13:00:00 14 16 Noroeste 34 Noroeste 0 -- -- 55
2019-04-07 12:00:00 12.7 22 Noroeste 33 Noroeste 0 -- -- 50
2019-04-07 11:00:00 11.2 16 Oeste 30 Oeste 0 -- -- 58
2019-04-07 10:00:00 9.9 9 Sudoeste 16 Sudoeste 0 -- -- 71
2019-04-07 09:00:00 9 10 Sudoeste 27 Oeste 0 -- -- 72
2019-04-07 08:00:00 8.1 11 Sudoeste 17 Sudoeste 0 -- -- 77
2019-04-07 07:00:00 8 8 Sudoeste 19 Oeste 0 -- -- 78
2019-04-07 06:00:00 8.1 10 Oeste 18 Oeste 0 -- -- 77
2019-04-07 05:00:00 7.8 10 Sudoeste 22 Oeste 0 -- -- 79
2019-04-07 04:00:00 8 12 Oeste 29 Oeste 0 -- -- 77
2019-04-07 03:00:00 8.1 14 Oeste 24 Oeste 0 -- -- 75
2019-04-07 02:00:00 8.1 10 Oeste 17 Oeste 0 -- -- 77
2019-04-07 01:00:00 8.1 8 Sudoeste 19 Oeste 0 -- -- 80
2019-04-07 00:00:00 8.3 9 Oeste 15 Oeste 0 -- -- 81
2019-04-06 23:00:00 8.5 6 Sudoeste 16 Oeste 0 -- -- 81
2019-04-06 22:00:00 8.5 4 Sudoeste 15 Sudoeste 0 -- -- 82
2019-04-06 21:00:00 8.9 12 Oeste 39 Noroeste 0.2 -- -- 81
2019-04-06 20:00:00 10.1 21 Noroeste 45 Oeste 0 -- -- 76
2019-04-06 19:00:00 11.4 24 Noroeste 45 Noroeste 0 -- -- 73
2019-04-06 18:00:00 12.5 18 Norte 31 Noroeste 0 -- -- 60
2019-04-06 17:00:00 14.9 16 Nordeste 29 Nordeste 0 -- -- 51
2019-04-06 16:00:00 15.7 14 Norte 24 Noroeste 0 -- -- 42
2019-04-06 15:00:00 14.2 15 Norte 28 Sudoeste 0 -- -- 54
2019-04-06 14:00:00 16.9 18 Sudoeste 34 Sudoeste 0 -- -- 42
2019-04-06 13:00:00 15.5 21 Sur 34 Sur 0 -- -- 47
2019-04-06 12:00:00 14.8 17 Sudoeste 29 Sur 0 -- -- 49
2019-04-06 11:00:00 11.8 10 Sur 23 Sudoeste 0 -- -- 56
2019-04-06 10:00:00 12.2 9 Sur 26 Sur 0 -- -- 55
2019-04-06 09:00:00 8.9 12 Sudeste 20 Sudeste 0 -- -- 66
2019-04-06 08:00:00 5.9 10 Sudeste 15 Sudeste 0 -- -- 76
2019-04-06 07:00:00 5.8 8 Sur 15 Sudeste 0 -- -- 80
2019-04-06 06:00:00 6 4 Sur 18 Sudeste 0 -- -- 85
2019-04-06 05:00:00 6 7 Sudeste 12 Sudeste 0 -- -- 91
2019-04-06 04:00:00 6.5 5 Sur 16 Sudeste 0 -- -- 90
2019-04-06 03:00:00 6.9 11 Sudeste 16 Sudeste 0 -- -- 89
2019-04-06 02:00:00 7.1 9 Sudeste 13 Sudeste 0 -- -- 86
2019-04-06 01:00:00 7.7 11 Sudoeste 15 Oeste 0 -- -- 87
2019-04-06 00:00:00 8.6 11 Oeste 18 Noroeste 0 -- -- 89
2019-04-05 23:00:00 9.1 8 Oeste 18 Noroeste 0.8 -- -- 89
2019-04-05 22:00:00 9.6 6 Oeste 12 Noroeste 0 -- -- 86
2019-04-05 21:00:00 9.6 5 Norte 13 Este 0 -- -- 86
2019-04-05 20:00:00 10.8 10 Este 22 Nordeste 0 -- -- 79
2019-04-05 19:00:00 10.9 16 Nordeste 28 Nordeste 0 -- -- 78
2019-04-05 18:00:00 11.7 22 Nordeste 27 Nordeste 0 -- -- 76
2019-04-05 17:00:00 12.6 13 Este 23 Nordeste 0 -- -- 74
2019-04-05 16:00:00 12.7 15 Nordeste 23 Nordeste 0 -- -- 75
2019-04-05 15:00:00 11 13 Norte 21 Norte 0 -- -- 80
2019-04-05 14:00:00 11.7 14 Norte 27 Norte 0 -- -- 77
2019-04-05 13:00:00 11.9 10 Norte 17 Noroeste 0 -- -- 75
2019-04-05 12:00:00 11.1 9 Norte 17 Norte 0 -- -- 82
2019-04-05 11:00:00 11.3 9 Norte 15 Norte 0 -- -- 79
2019-04-05 10:00:00 10.9 5 Oeste 8 Sudoeste 0 -- -- 72
2019-04-05 09:00:00 9.4 6 Sudoeste 14 Sudoeste 0 -- -- 69
2019-04-05 08:00:00 9.4 8 Sudoeste 21 Sudoeste 0 -- -- 69
2019-04-05 07:00:00 9.7 15 Sudoeste 33 Sudoeste 0 -- -- 66
2019-04-05 06:00:00 10 23 Sudoeste 46 Sur 0 -- -- 62
2019-04-05 05:00:00 10.1 24 Sur 46 Sudoeste 0 -- -- 62
2019-04-05 04:00:00 10.5 30 Sudoeste 50 Sur 0 -- -- 60
2019-04-05 03:00:00 10.3 23 Sur 49 Sur 0 -- -- 60
2019-04-05 02:00:00 10.4 21 Sur 40 Sudoeste 0 -- -- 60
2019-04-05 01:00:00 10.5 11 Sur 32 Sur 0 -- -- 60
2019-04-05 00:00:00 10.9 21 Sur 34 Sudoeste 0 -- -- 58
2019-04-04 23:00:00 10.9 22 Sur 37 Sur 0 -- -- 58
2019-04-04 22:00:00 11.3 19 Sudoeste 30 Sur 0 -- -- 57
2019-04-04 21:00:00 10.3 5 Sudoeste 7 Este 0 -- -- 74
2019-04-04 20:00:00 10.6 4 Norte 7 Nordeste 0 -- -- 72
2019-04-04 19:00:00 11.3 5 Este 15 Este 0 -- -- 69
2019-04-04 18:00:00 11.6 7 Este 18 Este 0 -- -- 65
2019-04-04 17:00:00 12.5 13 Nordeste 21 Nordeste 0 -- -- 60
2019-04-04 16:00:00 12.6 16 Nordeste 34 Nordeste 0 -- -- 59
2019-04-04 15:00:00 13.6 16 Norte 24 Norte 0 -- -- 53
2019-04-04 14:00:00 14.2 5 Nordeste 20 Sudeste 0 -- -- 46
2019-04-04 13:00:00 13.3 6 Sudoeste 26 Sudoeste 0 -- -- 49
2019-04-04 12:00:00 11.6 10 Sudoeste 18 Sudoeste 0 -- -- 55
2019-04-04 11:00:00 8.9 7 Sudoeste 16 Sur 0 -- -- 71
2019-04-04 10:00:00 6.9 8 Sudoeste 15 Sudoeste 0 -- -- 79
2019-04-04 09:00:00 5.2 12 Sudoeste 19 Sudoeste 0 -- -- 82
2019-04-04 08:00:00 4.7 12 Sudoeste 17 Sudoeste 0 -- -- 86
2019-04-04 07:00:00 5 11 Sudoeste 29 Oeste 0 -- -- 87
2019-04-04 06:00:00 4.5 13 Sudoeste 25 Oeste 0 -- -- 90
2019-04-04 05:00:00 4.2 18 Oeste 40 Oeste 1.2 -- -- 90
2019-04-04 04:00:00 4 14 Sudoeste 35 Oeste 0.2 -- -- 90
2019-04-04 03:00:00 4.4 35 Oeste 53 Oeste 0.2 -- -- 86
2019-04-04 02:00:00 4.6 24 Oeste 42 Oeste 0 -- -- 86
2019-04-04 01:00:00 4 22 Oeste 48 Oeste 0.4 -- -- 91
2019-04-04 00:00:00 4 16 Sudoeste 37 Oeste 0.4 -- -- 93
2019-04-03 23:00:00 4.1 22 Oeste 42 Oeste 2.2 -- -- 91
2019-04-03 22:00:00 4.1 11 Norte 29 Sudoeste 3 -- -- 90
2019-04-03 21:00:00 4.5 21 Oeste 68 Oeste 1.6 -- -- 86
2019-04-03 20:00:00 5.8 18 Oeste 39 Oeste 0.4 -- -- 89
2019-04-03 19:00:00 5.4 8 Sudoeste 33 Noroeste 0.8 -- -- 90
2019-04-03 18:00:00 6.7 22 Oeste 48 Oeste 0.2 -- -- 86
2019-04-03 17:00:00 5.8 18 Sudoeste 54 Noroeste 2 -- -- 92
2019-04-03 16:00:00 4.9 25 Noroeste 75 Noroeste 5.4 -- -- 86
2019-04-03 15:00:00 9.3 18 Oeste 60 Oeste 0.8 -- -- 79
2019-04-03 14:00:00 6.7 23 Oeste 49 Oeste 0 -- -- 85
2019-04-03 13:00:00 5.1 27 Oeste 71 Noroeste 3.6 -- -- 92
2019-04-03 12:00:00 7.9 29 Oeste 57 Oeste 0 -- -- 80
2019-04-03 11:00:00 6.7 33 Oeste 52 Oeste 0.4 -- -- 88
2019-04-03 10:00:00 6.1 8 Noroeste 29 Oeste 1.2 -- -- 92
2019-04-03 09:00:00 5.8 21 Oeste 49 Noroeste 3.8 -- -- 93
2019-04-03 08:00:00 6.2 12 Oeste 37 Oeste 2 -- -- 92
2019-04-03 07:00:00 7.1 21 Oeste 56 Noroeste 0.6 -- -- 91
2019-04-03 06:00:00 7.4 14 Oeste 45 Oeste 0.2 -- -- 88
2019-04-03 05:00:00 7.7 19 Oeste 47 Oeste 0.6 -- -- 90
2019-04-03 04:00:00 8.2 23 Oeste 37 Oeste 0.4 -- -- 89
2019-04-03 03:00:00 8.3 13 Sudoeste 24 Sudoeste 0 -- -- 91
2019-04-03 02:00:00 8.1 15 Sudoeste 21 Sudoeste 0 -- -- 95
2019-04-03 01:00:00 8.3 14 Sudoeste 21 Oeste 1 -- -- 96
2019-04-03 00:00:00 8.5 10 Sudoeste 23 Oeste 0 -- -- 96
2019-04-02 23:00:00 8.5 15 Oeste 32 Noroeste 0.6 -- -- 96
2019-04-02 22:00:00 8.9 18 Noroeste 29 Noroeste 1 -- -- 95
2019-04-02 21:00:00 9.2 17 Oeste 30 Noroeste 0.8 -- -- 95
2019-04-02 20:00:00 9.9 15 Noroeste 23 Noroeste 0.8 -- -- 92
2019-04-02 19:00:00 11.1 14 Noroeste 27 Noroeste 0 -- -- 85
2019-04-02 18:00:00 11.6 17 Noroeste 28 Noroeste 0 -- -- 82
2019-04-02 17:00:00 12.7 17 Noroeste 27 Noroeste 0 -- -- 77
2019-04-02 16:00:00 12.8 13 Noroeste 26 Noroeste 0 -- -- 78
2019-04-02 15:00:00 12.6 14 Noroeste 24 Noroeste 0 -- -- 79
2019-04-02 14:00:00 12.9 14 Noroeste 29 Noroeste 0 -- -- 80
2019-04-02 13:00:00 12.8 17 Noroeste 26 Noroeste 0 -- -- 82
2019-04-02 12:00:00 12.4 14 Oeste 24 Oeste 0 -- -- 85
2019-04-02 11:00:00 11.3 14 Oeste 24 Oeste 0 -- -- 89
2019-04-02 10:00:00 10.6 8 Sudoeste 17 Sudoeste 0 -- -- 90
2019-04-02 09:00:00 9.5 13 Sudoeste 16 Sudoeste 0 -- -- 91
2019-04-02 08:00:00 9.3 12 Sudoeste 16 Sudoeste 0 -- -- 92
2019-04-02 07:00:00 9.5 13 Sudoeste 22 Sudoeste 0 -- -- 93
2019-04-02 06:00:00 7.9 14 Sudoeste 20 Sudoeste 0 -- -- 91
2019-04-02 05:00:00 7.6 9 Sudoeste 14 Sudoeste 0 -- -- 92
2019-04-02 04:00:00 8.2 8 Sur 14 Sur 0 -- -- 91
2019-04-02 03:00:00 8.5 10 Sur 13 Sudeste 0 -- -- 91
2019-04-02 02:00:00 9 6 Sur 13 Sur 0 -- -- 91
2019-04-02 01:00:00 9.4 9 Sur 14 Sudeste 0 -- -- 91
2019-04-02 00:00:00 10 5 Sur 12 Sudoeste 0 -- -- 89
2019-04-01 23:00:00 10.7 8 Sudeste 10 Sudeste 0 -- -- 88
2019-04-01 22:00:00 11.4 3 Sudoeste 8 Norte 0 -- -- 85
2019-04-01 21:00:00 11.8 5 Norte 7 Norte 0 -- -- 83
2019-04-01 20:00:00 13.4 7 Norte 14 Norte 0 -- -- 78
2019-04-01 19:00:00 14.6 9 Norte 19 Norte 0 -- -- 77
2019-04-01 18:00:00 14.8 13 Nordeste 20 Nordeste 0 -- -- 72
2019-04-01 17:00:00 15.5 12 Nordeste 24 Nordeste 0 -- -- 72
2019-04-01 16:00:00 15.7 15 Norte 25 Nordeste 0 -- -- 72
2019-04-01 15:00:00 15.6 18 Nordeste 25 Norte 0 -- -- 70
2019-04-01 14:00:00 15.9 13 Nordeste 23 Nordeste 0 -- -- 68
2019-04-01 13:00:00 15.9 8 Norte 14 Norte 0 -- -- 66
2019-04-01 12:00:00 13.9 6 Noroeste 12 Noroeste 0 -- -- 69
2019-04-01 11:00:00 13 4 Noroeste 10 Oeste 0 -- -- 68
2019-04-01 10:00:00 10.9 6 Sudoeste 10 Oeste 0 -- -- 72
2019-04-01 09:00:00 8.3 8 Sudoeste 10 Oeste 0 -- -- 75
2019-04-01 08:00:00 8.4 3 Sudeste 6 Este 0 -- -- 73
2019-04-01 07:00:00 8.9 5 Oeste 9 Sur 0 -- -- 70
2019-04-01 06:00:00 9.7 6 Sudeste 15 Sudeste 0 -- -- 69
2019-04-01 05:00:00 8.6 6 Sudeste 14 Sur 0 -- -- 74
2019-04-01 04:00:00 8.2 8 Sur 12 Sudoeste 0 -- -- 77
2019-04-01 03:00:00 8.3 6 Sur 12 Sur 0 -- -- 77
2019-04-01 02:00:00 8.9 7 Sur 9 Sudoeste 0 -- -- 76
2019-04-01 01:00:00 9.5 5 Oeste 8 Sudoeste 0 -- -- 75
2019-04-01 00:00:00 11.4 3 Nordeste 8 Nordeste 0 -- -- 67
2019-03-31 23:00:00 11.6 10 Sudoeste 14 Sudoeste 0 -- -- 66
2019-03-31 22:00:00 13 3 Oeste 14 Este 0 -- -- 60
2019-03-31 21:00:00 13.9 12 Este 35 Este 0 -- -- 56
2019-03-31 20:00:00 15.6 22 Este 34 Este 0 -- -- 62
2019-03-31 19:00:00 17.4 24 Este 37 Este 0 -- -- 50
2019-03-31 18:00:00 18.8 26 Este 39 Este 0 -- -- 46
2019-03-31 17:00:00 19.8 27 Este 42 Nordeste 0 -- -- 43
2019-03-31 16:00:00 20.5 30 Nordeste 40 Nordeste 0 -- -- 44
2019-03-31 15:00:00 21 21 Nordeste 36 Nordeste 0 -- -- 46
2019-03-31 14:00:00 20.8 14 Nordeste 26 Este 0 -- -- 45
2019-03-31 13:00:00 20.4 7 Sudeste 16 Este 0 -- -- 49
2019-03-31 12:00:00 17.9 5 Nordeste 8 Nordeste 0 -- -- 61
2019-03-31 11:00:00 14.9 5 Este 13 Sudeste 0 -- -- 66
2019-03-31 10:00:00 12.2 8 Sudeste 14 Sudeste 0 -- -- 67
2019-03-31 09:00:00 9.5 8 Sur 15 Sudeste 0 -- -- 78
2019-03-31 08:00:00 9 5 Este 18 Sudeste 0 -- -- 79
2019-03-31 07:00:00 9 12 Sudeste 18 Sudeste 0 -- -- 82
2019-03-31 06:00:00 9 10 Sur 18 Sudeste 0 -- -- 85
2019-03-31 05:00:00 9.1 14 Sudeste 21 Sudeste 0 -- -- 90
2019-03-31 03:00:00 9.2 13 Sudeste 16 Sudeste 0 -- -- 91
2019-03-31 01:00:00 10.2 10 Sudeste 14 Sudeste 0 -- -- 89
2019-03-31 00:00:00 10.1 9 Sur 14 Sudeste 0 -- -- 92
2019-03-30 23:00:00 11.1 5 Sudeste 9 Sudeste 0 -- -- 95
2019-03-30 22:00:00 10.9 5 Sudoeste 7 Oeste 0 -- -- 95
2019-03-30 21:00:00 11.4 3 Noroeste 8 Norte 0 -- -- 94
2019-03-30 20:00:00 11.8 6 Norte 13 Nordeste 0 -- -- 91
2019-03-30 19:00:00 13.3 8 Nordeste 13 Nordeste 0 -- -- 85
2019-03-30 18:00:00 15.6 9 Nordeste 12 Norte 0 -- -- 77
2019-03-30 17:00:00 16.4 6 Norte 14 Noroeste 0 -- -- 73
2019-03-30 16:00:00 15.6 8 Norte 17 Nordeste 0 -- -- 74
2019-03-30 15:00:00 16.3 13 Nordeste 21 Nordeste 0 -- -- 74
2019-03-30 14:00:00 15.6 15 Norte 24 Nordeste 0 -- -- 81
2019-03-30 13:00:00 15.7 18 Norte 26 Nordeste 0 -- -- 82
2019-03-30 12:00:00 17.1 14 Nordeste 20 Nordeste 0 -- -- 77
2019-03-30 11:00:00 16.1 8 Nordeste 10 Nordeste 0 -- -- 76
2019-03-30 10:00:00 14.2 3 Noroeste 6 Noroeste 0 -- -- 81
2019-03-30 09:00:00 12.2 0 Calma 5 Este 0 -- -- 86
2019-03-30 08:00:00 8.1 3 Noroeste 9 Noroeste 0 -- -- 92
2019-03-30 07:00:00 7.8 6 Noroeste 13 Noroeste 0 -- -- 94
2019-03-30 06:00:00 8 10 Norte 13 Noroeste 0 -- -- 96
2019-03-30 05:00:00 8.2 4 Noroeste 11 Noroeste 0 -- -- 95
2019-03-30 04:00:00 8 4 Norte 9 Noroeste 0 -- -- 96
2019-03-30 03:00:00 7.1 7 Oeste 17 Sur 0 -- -- 95
2019-03-30 02:00:00 7.8 10 Sur 15 Sudeste 0 -- -- 94
2019-03-30 01:00:00 8.3 9 Sur 14 Sudeste 0 -- -- 93
2019-03-30 00:00:00 8.9 5 Sur 9 Sudoeste 0 -- -- 92
2019-03-29 23:00:00 9.5 6 Sudoeste 7 Sudoeste 0 -- -- 91
2019-03-29 22:00:00 10.1 6 Sudoeste 7 Sudoeste 0 -- -- 90
2019-03-29 21:00:00 10.9 -- -- -- -- 0 -- -- 88
2019-03-29 20:00:00 11.2 3 Norte 10 Nordeste 0 -- -- 87
2019-03-29 19:00:00 12.4 8 Nordeste 13 Norte 0 -- -- 82
2019-03-29 18:00:00 13.7 13 Norte 18 Norte 0 -- -- 78
2019-03-29 17:00:00 15.1 11 Norte 20 Norte 0 -- -- 71
2019-03-29 16:00:00 15.8 13 Norte 22 Norte 0 -- -- 71
2019-03-29 15:00:00 15.6 14 Norte 23 Nordeste 0 -- -- 68
2019-03-29 14:00:00 15.9 14 Norte 22 Nordeste 0 -- -- 65
2019-03-29 13:00:00 16 14 Norte 21 Norte 0 -- -- 64
2019-03-29 12:00:00 15.2 12 Norte 19 Nordeste 0 -- -- 70
2019-03-29 11:00:00 14.3 8 Nordeste 12 Nordeste 0 -- -- 74
2019-03-29 10:00:00 11.9 4 Sur 7 Oeste 0 -- -- 73
2019-03-29 09:00:00 8.9 4 Sudoeste 17 Sudeste 0 -- -- 82
2019-03-29 08:00:00 6.2 7 Sur 17 Sudeste 0 -- -- 91
2019-03-29 07:00:00 5 13 Sudeste 17 Sudeste 0 -- -- 94
2019-03-29 06:00:00 5.2 14 Sudeste 21 Sudeste 0 -- -- 93
2019-03-29 05:00:00 5.5 12 Sudeste 19 Sudeste 0 -- -- 94
2019-03-29 04:00:00 5.7 15 Sudeste 22 Sudeste 0 -- -- 94
2019-03-29 03:00:00 6 13 Sudeste 21 Sudeste 0 -- -- 94
2019-03-29 02:00:00 6.3 9 Sur 17 Sudeste 0 -- -- 94
2019-03-29 01:00:00 6.5 12 Sudeste 15 Sudeste 0 -- -- 94
2019-03-29 00:00:00 7 12 Sudeste 14 Sudeste 0 -- -- 93
2019-03-28 23:00:00 8.5 6 Sudeste 6 Sudeste 0 -- -- 90
2019-03-28 22:00:00 9.1 4 Sudeste 6 Este 0 -- -- 88
2019-03-28 21:00:00 9.7 4 Este 13 Sudeste 0 -- -- 85
2019-03-28 20:00:00 10.2 7 Este 18 Este 0 -- -- 81
2019-03-28 19:00:00 11.3 14 Nordeste 20 Nordeste 0 -- -- 75
2019-03-28 18:00:00 12.5 16 Nordeste 27 Nordeste 0 -- -- 75
2019-03-28 17:00:00 13.2 21 Nordeste 27 Nordeste 0 -- -- 72
2019-03-28 16:00:00 13.9 19 Nordeste 28 Norte 0 -- -- 72
2019-03-28 15:00:00 14 20 Norte 30 Norte 0 -- -- 67
2019-03-28 14:00:00 14 17 Norte 27 Nordeste 0 -- -- 69
2019-03-28 13:00:00 13.5 16 Nordeste 24 Nordeste 0 -- -- 69
2019-03-28 12:00:00 13.5 6 Norte 12 Nordeste 0 -- -- 69
2019-03-28 11:00:00 12.9 7 Norte 9 Norte 0 -- -- 71
2019-03-28 10:00:00 10.8 8 Sudeste 15 Sur 0 -- -- 75
2019-03-28 09:00:00 8.1 9 Sudeste 15 Sur 0 -- -- 80
2019-03-28 08:00:00 6.2 9 Sur 15 Sur 0 -- -- 85
2019-03-28 07:00:00 5.3 9 Sur 15 Sur 0 -- -- 88
2019-03-28 06:00:00 5 6 Sur 13 Sur 0 -- -- 88
2019-03-28 05:00:00 5.3 8 Sur 15 Sur 0 -- -- 88
2019-03-28 04:00:00 5.6 8 Sur 15 Sur 0 -- -- 88
2019-03-28 03:00:00 5.6 9 Sudoeste 12 Sudoeste 0 -- -- 89
2019-03-28 02:00:00 5.7 8 Sur 14 Sur 0 -- -- 89
2019-03-28 01:00:00 6.1 8 Sur 13 Sur 0 -- -- 89
2019-03-28 00:00:00 6.3 12 Sudoeste 15 Sudoeste 0 -- -- 87
2019-03-27 23:00:00 6.8 10 Sudoeste 11 Sudoeste 0 -- -- 85
2019-03-27 22:00:00 7.9 6 Oeste 7 Oeste 0 -- -- 81
2019-03-27 21:00:00 8.7 3 Sur 13 Este 0 -- -- 79
2019-03-27 20:00:00 8.6 11 Nordeste 18 Este 0 -- -- 79
2019-03-27 19:00:00 10.4 12 Este 26 Nordeste 0 -- -- 73
2019-03-27 18:00:00 11.5 19 Nordeste 30 Nordeste 0 -- -- 70
2019-03-27 17:00:00 12.3 22 Nordeste 30 Nordeste 0 -- -- 68
2019-03-27 16:00:00 13.1 21 Nordeste 28 Nordeste 0 -- -- 66
2019-03-27 15:00:00 13.5 22 Nordeste 31 Nordeste 0 -- -- 63
2019-03-27 14:00:00 13.9 22 Nordeste 32 Nordeste 0 -- -- 61
2019-03-27 13:00:00 14.1 18 Nordeste 27 Nordeste 0 -- -- 62
2019-03-27 12:00:00 13.8 14 Este 23 Nordeste 0 -- -- 64
2019-03-27 11:00:00 13.3 6 Nordeste 14 Este 0 -- -- 65
2019-03-27 10:00:00 11.6 3 Sudoeste 12 Sur 0 -- -- 70
2019-03-27 09:00:00 7.8 8 Sur 18 Sur 0 -- -- 75
2019-03-27 08:00:00 5.2 11 Sur 17 Sudeste 0 -- -- 82
2019-03-27 07:00:00 3.8 9 Sur 14 Sur 0 -- -- 87
2019-03-27 06:00:00 4 9 Sur 22 Sudoeste 0 -- -- 88
2019-03-27 05:00:00 3.8 17 Sudoeste 23 Sudoeste 0 -- -- 87
2019-03-27 04:00:00 4.3 8 Sudoeste 13 Sudoeste 0 -- -- 87
2019-03-27 03:00:00 4.3 8 Sur 18 Sudeste 0 -- -- 86
2019-03-27 02:00:00 4.9 13 Sudeste 19 Sur 0 -- -- 84
2019-03-27 01:00:00 5.2 15 Sur 19 Sudeste 0 -- -- 84
2019-03-27 00:00:00 5.6 9 Sur 20 Sudeste 0 -- -- 82